Time;durP1;ratioP1;P1;durP2;ratioP2;P2;SDS_P1;SDS_P2;PMS_P1;PMS_P2;Temp;Humidity;BMP_temperature;BMP_pressure;BME280_temperature;BME280_humidity;BME280_pressure;Samples;Min_cycle;Max_cycle;Signal;HPM_P1;HPM_P2
2021/12/03 00:01:32;;;;;;;18.17;10.50;;;4.50;85.00;;;;;;5058903;28;20025;-45
2021/12/03 00:03:58;;;;;;;15.73;9.45;;;4.50;85.60;;;;;;5058447;28;20108;-34
2021/12/03 00:06:23;;;;;;;17.00;9.82;;;4.50;85.10;;;;;;5058613;28;20497;-44
2021/12/03 00:08:49;;;;;;;16.58;10.30;;;4.50;85.10;;;;;;5058644;28;20037;-43
2021/12/03 00:11:16;;;;;;;19.02;9.32;;;4.50;85.00;;;;;;5058621;28;20326;-33
2021/12/03 00:13:43;;;;;;;16.58;9.07;;;4.50;85.10;;;;;;5058663;28;20052;-36
2021/12/03 00:16:10;;;;;;;20.52;9.35;;;4.50;85.20;;;;;;5057433;28;20368;-44
2021/12/03 00:18:36;;;;;;;18.10;9.55;;;4.50;85.30;;;;;;5058610;28;20052;-34
2021/12/03 00:21:04;;;;;;;16.42;9.65;;;4.50;85.20;;;;;;5058401;28;20021;-34
2021/12/03 00:23:31;;;;;;;15.57;9.38;;;4.50;85.20;;;;;;5058154;28;20025;-34
2021/12/03 00:26:00;;;;;;;20.25;9.80;;;4.50;85.20;;;;;;5058612;28;20025;-45
2021/12/03 00:28:26;;;;;;;17.20;9.20;;;4.50;85.20;;;;;;5058113;28;20102;-45
2021/12/03 00:30:52;;;;;;;14.10;9.38;;;4.50;85.20;;;;;;5058155;28;20068;-33
2021/12/03 00:33:18;;;;;;;17.50;9.93;;;4.50;85.20;;;;;;5058245;28;20330;-34
2021/12/03 00:35:44;;;;;;;15.00;9.40;;;4.50;85.20;;;;;;5057993;28;20099;-45
2021/12/03 00:38:10;;;;;;;13.90;8.70;;;4.50;85.20;;;;;;5058012;28;20433;-40
2021/12/03 00:40:39;;;;;;;13.45;8.38;;;4.50;85.20;;;;;;5058389;28;20036;-33
2021/12/03 00:43:05;;;;;;;16.50;9.05;;;4.50;85.20;;;;;;5058338;28;20036;-46
2021/12/03 00:45:32;;;;;;;14.43;8.95;;;4.50;85.20;;;;;;5058346;28;20033;-45
2021/12/03 00:47:58;;;;;;;12.77;8.38;;;4.50;85.20;;;;;;5058157;28;20346;-45
2021/12/03 00:50:25;;;;;;;14.32;8.77;;;4.50;85.20;;;;;;5058255;28;20043;-33
2021/12/03 00:52:52;;;;;;;14.43;9.15;;;4.50;85.20;;;;;;5057709;28;20072;-33
2021/12/03 00:55:20;;;;;;;17.80;8.90;;;4.50;85.20;;;;;;5057715;28;20120;-44
2021/12/03 00:57:46;;;;;;;17.95;9.32;;;4.50;85.10;;;;;;5057778;28;20032;-33
2021/12/03 01:00:15;;;;;;;13.85;9.00;;;4.50;84.90;;;;;;5057967;28;20032;-34
2021/12/03 01:02:41;;;;;;;16.90;9.75;;;4.50;84.90;;;;;;5057870;28;20029;-35
2021/12/03 01:05:08;;;;;;;17.77;9.80;;;4.50;84.90;;;;;;5057898;28;20116;-45
2021/12/03 01:07:34;;;;;;;18.90;9.55;;;4.50;84.90;;;;;;5057416;28;20040;-45
2021/12/03 01:10:00;;;;;;;16.42;10.02;;;4.50;84.90;;;;;;5057271;28;20134;-34
2021/12/03 01:12:26;;;;;;;19.42;10.15;;;4.50;84.90;;;;;;5057316;28;20294;-39
2021/12/03 01:14:52;;;;;;;15.10;8.75;;;4.50;85.00;;;;;;5057219;28;20169;-33
2021/12/03 01:17:17;;;;;;;18.90;10.23;;;4.50;85.00;;;;;;5057639;28;20295;-33
2021/12/03 01:19:45;;;;;;;20.98;11.30;;;4.40;84.90;;;;;;5057414;28;20305;-45
2021/12/03 01:22:11;;;;;;;19.40;10.55;;;4.40;84.90;;;;;;5057225;28;20029;-37
2021/12/03 01:24:36;;;;;;;21.05;10.65;;;4.40;84.90;;;;;;5057390;28;20044;-33
2021/12/03 01:27:02;;;;;;;18.08;9.45;;;4.40;84.80;;;;;;5057222;28;20025;-45
2021/12/03 01:29:28;;;;;;;19.23;9.88;;;4.40;84.80;;;;;;5057184;28;20112;-33
2021/12/03 01:31:56;;;;;;;16.58;9.32;;;4.40;84.80;;;;;;5057220;28;20036;-34
2021/12/03 01:34:23;;;;;;;19.05;10.07;;;4.30;85.40;;;;;;5057038;28;20033;-34
2021/12/03 01:36:49;;;;;;;16.83;10.02;;;4.30;85.00;;;;;;5056909;28;20124;-32
2021/12/03 01:39:15;;;;;;;19.10;10.15;;;4.30;85.10;;;;;;5056876;28;20033;-34
2021/12/03 01:41:42;;;;;;;16.88;8.93;;;4.30;85.20;;;;;;5057100;28;20037;-45
2021/12/03 01:44:08;;;;;;;16.30;9.60;;;4.30;85.30;;;;;;5056929;28;20068;-45
2021/12/03 01:46:34;;;;;;;16.33;9.02;;;4.30;85.50;;;;;;5056660;28;20043;-45
2021/12/03 01:49:00;;;;;;;18.67;9.60;;;4.20;85.70;;;;;;5056814;28;20032;-33
2021/12/03 01:51:27;;;;;;;19.45;9.32;;;4.30;85.90;;;;;;5056868;28;20037;-46
2021/12/03 01:53:53;;;;;;;19.85;9.25;;;4.20;86.00;;;;;;5056593;28;20032;-34
2021/12/03 01:56:20;;;;;;;17.83;10.35;;;4.20;86.20;;;;;;5056557;28;20033;-45
2021/12/03 01:58:47;;;;;;;18.42;10.60;;;4.20;86.30;;;;;;5056526;28;20029;-34
2021/12/03 02:01:15;;;;;;;18.13;9.95;;;4.30;86.50;;;;;;5056514;28;20033;-33
2021/12/03 02:03:45;;;;;;;17.92;9.40;;;4.30;86.60;;;;;;5056682;28;20043;-33
2021/12/03 02:06:12;;;;;;;22.17;9.52;;;4.30;86.60;;;;;;5056798;28;20380;-33
2021/12/03 02:08:39;;;;;;;26.48;10.73;;;4.30;86.50;;;;;;5056371;28;20033;-33
2021/12/03 02:11:06;;;;;;;20.40;10.13;;;4.40;86.50;;;;;;5056438;28;20025;-33
2021/12/03 02:13:32;;;;;;;19.83;9.98;;;4.30;86.40;;;;;;5056370;28;20037;-33
2021/12/03 02:15:58;;;;;;;17.13;9.70;;;4.30;86.40;;;;;;5056372;28;20032;-37
2021/12/03 02:18:24;;;;;;;18.02;9.63;;;4.40;86.50;;;;;;5055727;28;20033;-45
2021/12/03 02:20:52;;;;;;;19.80;10.63;;;4.40;86.50;;;;;;5056230;28;20066;-45
2021/12/03 02:23:20;;;;;;;16.75;9.60;;;4.30;86.60;;;;;;5056009;28;20029;-34
2021/12/03 02:25:46;;;;;;;20.30;9.55;;;4.40;86.80;;;;;;5055879;28;20036;-33
2021/12/03 02:28:13;;;;;;;19.58;8.82;;;4.40;86.90;;;;;;5055670;28;20033;-35
2021/12/03 02:30:39;;;;;;;15.90;9.10;;;4.40;86.70;;;;;;5056308;28;20428;-33
2021/12/03 02:33:05;;;;;;;15.50;9.35;;;4.40;86.70;;;;;;5056176;28;20043;-45
2021/12/03 02:35:31;;;;;;;17.27;9.35;;;4.40;86.70;;;;;;5056347;28;20431;-44
2021/12/03 02:37:57;;;;;;;22.67;9.45;;;4.40;86.50;;;;;;5055943;28;20171;-34
2021/12/03 02:40:23;;;;;;;22.45;11.43;;;4.50;86.50;;;;;;5056394;28;20324;-45
2021/12/03 02:42:49;;;;;;;18.25;10.10;;;4.50;86.40;;;;;;5056107;28;20033;-35
2021/12/03 02:45:16;;;;;;;17.33;9.35;;;4.50;86.20;;;;;;5056335;28;20076;-37
2021/12/03 02:47:42;;;;;;;21.55;10.15;;;4.50;86.10;;;;;;5056435;28;20037;-44
2021/12/03 02:50:10;;;;;;;18.02;9.63;;;4.50;86.00;;;;;;5055995;28;20043;-44
2021/12/03 02:52:36;;;;;;;17.52;9.63;;;4.50;85.90;;;;;;5055851;28;20029;-33
2021/12/03 02:55:04;;;;;;;19.05;9.95;;;4.50;85.80;;;;;;5056259;28;20033;-44
2021/12/03 02:57:29;;;;;;;19.90;11.10;;;4.50;85.70;;;;;;5055718;28;20059;-45
2021/12/03 02:59:55;;;;;;;26.20;14.15;;;4.50;85.80;;;;;;5056136;28;20397;-32
2021/12/03 03:02:21;;;;;;;29.35;15.48;;;4.50;85.70;;;;;;5055949;28;20033;-44
2021/12/03 03:04:46;;;;;;;34.20;18.90;;;4.50;85.70;;;;;;5056062;28;20040;-44
2021/12/03 03:07:12;;;;;;;27.80;15.38;;;4.50;85.80;;;;;;5055622;28;20032;-44
2021/12/03 03:09:38;;;;;;;19.92;10.90;;;4.50;85.80;;;;;;5055552;28;20061;-45
2021/12/03 03:12:04;;;;;;;19.23;10.75;;;4.40;85.80;;;;;;5055777;28;20032;-45
2021/12/03 03:14:30;;;;;;;20.83;10.07;;;4.50;85.90;;;;;;5055843;28;20040;-33
2021/12/03 03:16:55;;;;;;;15.63;9.70;;;4.40;85.90;;;;;;5055613;28;20024;-36
2021/12/03 03:19:23;;;;;;;16.25;9.75;;;4.40;85.90;;;;;;5055810;28;20087;-45
2021/12/03 03:21:49;;;;;;;18.42;10.15;;;4.50;86.00;;;;;;5055662;28;20025;-33
2021/12/03 03:24:16;;;;;;;16.23;9.75;;;4.50;85.90;;;;;;5055746;28;20124;-45
2021/12/03 03:26:45;;;;;;;24.48;12.63;;;4.50;85.90;;;;;;5055730;28;20055;-32
2021/12/03 03:29:13;;;;;;;50.60;17.92;;;4.50;85.90;;;;;;5055527;28;20033;-32
2021/12/03 03:31:39;;;;;;;35.53;15.00;;;4.50;85.90;;;;;;5055491;28;20021;-33
2021/12/03 03:34:07;;;;;;;24.83;12.63;;;4.40;85.80;;;;;;5055500;28;20025;-44
2021/12/03 03:36:39;;;;;;;22.40;11.88;;;4.40;85.80;;;;;;5055448;28;20064;-34
2021/12/03 03:39:11;;;;;;;19.10;11.85;;;4.40;85.80;;;;;;5058477;28;20048;-33
2021/12/03 03:41:38;;;;;;;22.17;11.45;;;4.40;85.80;;;;;;5059172;28;20057;-32
2021/12/03 03:44:03;;;;;;;20.50;11.00;;;4.40;85.80;;;;;;5059172;28;20086;-45
2021/12/03 03:46:29;;;;;;;35.42;22.00;;;4.40;85.70;;;;;;5058892;28;20021;-45
2021/12/03 03:48:56;;;;;;;28.90;19.00;;;4.40;85.80;;;;;;5059045;28;20029;-33
2021/12/03 03:51:22;;;;;;;30.88;17.73;;;4.40;85.90;;;;;;5059198;28;20029;-34
2021/12/03 03:53:47;;;;;;;27.60;15.30;;;4.40;86.00;;;;;;5058939;28;20033;-32
2021/12/03 03:56:13;;;;;;;21.92;12.40;;;4.40;86.20;;;;;;5059127;28;20028;-35
2021/12/03 03:58:41;;;;;;;21.98;13.23;;;4.40;86.40;;;;;;5058967;28;20104;-43
2021/12/03 04:01:09;;;;;;;24.73;13.63;;;4.40;86.50;;;;;;5059059;28;20017;-33
2021/12/03 04:03:35;;;;;;;23.98;13.25;;;4.30;86.50;;;;;;5058794;28;20316;-45
2021/12/03 04:06:01;;;;;;;24.88;15.45;;;4.40;86.60;;;;;;5059032;28;20282;-33
2021/12/03 04:08:29;;;;;;;31.00;18.13;;;4.30;86.50;;;;;;5058749;28;20272;-33
2021/12/03 04:10:57;;;;;;;27.05;16.08;;;4.30;86.60;;;;;;5058378;28;20124;-32
2021/12/03 04:13:23;;;;;;;26.45;14.75;;;4.30;86.80;;;;;;5058300;28;20120;-37
2021/12/03 04:15:49;;;;;;;24.10;14.85;;;4.40;87.00;;;;;;5058756;28;20056;-35
2021/12/03 04:18:15;;;;;;;32.00;18.40;;;4.40;87.10;;;;;;5058627;28;20029;-33
2021/12/03 04:20:40;;;;;;;36.33;20.48;;;4.40;87.10;;;;;;5058982;28;20305;-45
2021/12/03 04:23:07;;;;;;;33.63;21.02;;;4.40;87.00;;;;;;5058358;28;20028;-42
2021/12/03 04:25:34;;;;;;;23.25;13.27;;;4.40;87.40;;;;;;5058666;28;20041;-33
2021/12/03 04:28:00;;;;;;;23.88;13.10;;;4.40;87.00;;;;;;5058528;28;20029;-33
2021/12/03 04:30:29;;;;;;;23.52;9.80;;;4.40;87.00;;;;;;5058593;28;20029;-33
2021/12/03 04:32:56;;;;;;;18.75;8.43;;;4.50;87.00;;;;;;5058011;28;20041;-45
2021/12/03 04:35:24;;;;;;;18.08;8.10;;;4.50;86.90;;;;;;5058486;28;20040;-32
2021/12/03 04:37:50;;;;;;;15.93;8.60;;;4.50;86.80;;;;;;5057969;28;20033;-45
2021/12/03 04:40:17;;;;;;;16.92;8.32;;;4.60;86.60;;;;;;5058402;28;20120;-33
2021/12/03 04:42:44;;;;;;;11.88;7.65;;;4.60;86.30;;;;;;5057999;28;20037;-33
2021/12/03 04:45:13;;;;;;;12.52;7.18;;;4.70;86.00;;;;;;5058257;28;20033;-45
2021/12/03 04:47:39;;;;;;;14.07;7.18;;;4.70;85.60;;;;;;5057883;28;20364;-44
2021/12/03 04:50:08;;;;;;;17.02;7.38;;;4.70;85.30;;;;;;5057365;28;20056;-36
2021/12/03 04:52:34;;;;;;;11.57;6.55;;;4.70;85.10;;;;;;5057885;28;20599;-45
2021/12/03 04:54:59;;;;;;;16.48;7.30;;;4.80;84.80;;;;;;5058093;28;20061;-32
2021/12/03 04:57:25;;;;;;;11.85;6.47;;;4.80;84.60;;;;;;5057644;28;20068;-44
2021/12/03 04:59:51;;;;;;;11.52;6.07;;;4.80;84.40;;;;;;5057968;28;20037;-43
2021/12/03 05:02:19;;;;;;;15.90;6.85;;;4.80;84.10;;;;;;5057575;28;20108;-44
2021/12/03 05:04:45;;;;;;;12.40;6.70;;;4.80;83.90;;;;;;5057363;28;20029;-45
2021/12/03 05:09:37;;;;;;;11.27;6.13;;;4.90;83.60;;;;;;5057288;28;20136;-44
2021/12/03 05:12:04;;;;;;;14.80;7.03;;;4.90;83.50;;;;;;5057461;28;20473;-33
2021/12/03 05:14:30;;;;;;;11.93;6.03;;;4.90;83.30;;;;;;5057126;28;20121;-43
2021/12/03 05:16:56;;;;;;;11.57;6.07;;;4.90;83.10;;;;;;5057264;28;20043;-45
2021/12/03 05:19:23;;;;;;;9.13;5.68;;;4.90;82.90;;;;;;5057067;28;20029;-45
2021/12/03 05:21:48;;;;;;;9.45;6.28;;;4.90;82.70;;;;;;5057401;28;20086;-33
2021/12/03 05:24:15;;;;;;;11.85;6.57;;;4.90;82.80;;;;;;5057335;28;20108;-34
2021/12/03 05:26:43;;;;;;;18.60;11.52;;;4.90;82.70;;;;;;5056917;28;20054;-45
2021/12/03 05:29:10;;;;;;;13.30;6.28;;;4.90;82.60;;;;;;5056815;28;20102;-32
2021/12/03 05:31:36;;;;;;;13.05;6.38;;;4.90;82.50;;;;;;5056852;28;20021;-45
2021/12/03 05:34:04;;;;;;;13.55;6.82;;;4.90;82.40;;;;;;5057160;28;20063;-44
2021/12/03 05:36:30;;;;;;;15.60;7.95;;;4.90;82.40;;;;;;5055497;28;20018;-34
2021/12/03 05:38:56;;;;;;;13.02;7.20;;;4.90;82.40;;;;;;5056864;28;20033;-32
2021/12/03 05:41:21;;;;;;;15.52;6.55;;;4.90;82.40;;;;;;5056947;28;20021;-45
2021/12/03 05:43:47;;;;;;;20.48;8.73;;;4.90;82.40;;;;;;5056600;28;20041;-45
2021/12/03 05:46:14;;;;;;;14.70;6.80;;;4.90;82.30;;;;;;5056705;28;20138;-37
2021/12/03 05:48:39;;;;;;;15.27;8.07;;;4.90;82.20;;;;;;5056424;28;20037;-33
2021/12/03 05:51:06;;;;;;;12.98;6.82;;;4.90;82.20;;;;;;5056710;28;20024;-32
2021/12/03 05:53:32;;;;;;;14.77;7.18;;;4.90;82.20;;;;;;5047091;28;20041;-34
2021/12/03 05:55:58;;;;;;;12.50;6.88;;;4.80;82.00;;;;;;5047831;28;20029;-33
2021/12/03 05:58:24;;;;;;;14.43;9.02;;;4.90;82.10;;;;;;5047040;28;20151;-45
2021/12/03 06:00:50;;;;;;;10.48;6.35;;;4.90;82.10;;;;;;5050182;28;20025;-34
2021/12/03 06:03:16;;;;;;;11.23;5.88;;;4.80;82.00;;;;;;5038962;28;20108;-45
2021/12/03 06:05:42;;;;;;;14.45;7.05;;;4.80;82.00;;;;;;5036378;28;20049;-34
2021/12/03 06:08:08;;;;;;;16.05;6.07;;;4.80;82.00;;;;;;5036582;28;20104;-45
2021/12/03 06:10:35;;;;;;;13.32;6.85;;;4.80;82.00;;;;;;5035684;28;20476;-45
2021/12/03 06:13:01;;;;;;;11.68;6.43;;;4.90;82.00;;;;;;5038920;28;20029;-45
2021/12/03 06:15:28;;;;;;;12.20;7.13;;;4.80;82.00;;;;;;5056198;28;20029;-44
2021/12/03 06:17:54;;;;;;;11.70;7.05;;;4.90;82.10;;;;;;5055890;28;20021;-32
2021/12/03 06:20:20;;;;;;;15.38;6.80;;;4.80;82.10;;;;;;5056356;28;20191;-45
2021/12/03 06:22:47;;;;;;;11.15;6.53;;;4.90;82.20;;;;;;5056154;28;20316;-35
2021/12/03 06:25:14;;;;;;;13.60;6.72;;;4.90;82.20;;;;;;5056082;28;20039;-33
2021/12/03 06:27:40;;;;;;;13.07;7.30;;;4.90;82.30;;;;;;5055612;28;20075;-45
2021/12/03 06:30:09;;;;;;;14.30;8.43;;;4.90;82.90;;;;;;5055943;28;20212;-45
2021/12/03 06:32:35;;;;;;;17.13;8.07;;;4.90;82.40;;;;;;5055512;28;20025;-45
2021/12/03 06:35:03;;;;;;;15.20;8.85;;;5.00;82.40;;;;;;5056073;28;20087;-33
2021/12/03 06:37:29;;;;;;;15.75;8.45;;;5.00;82.40;;;;;;5055394;28;20021;-33
2021/12/03 06:39:55;;;;;;;15.57;8.30;;;5.00;82.40;;;;;;5055824;28;20327;-47
2021/12/03 06:42:21;;;;;;;15.10;8.48;;;5.00;82.50;;;;;;5055535;28;20033;-36
2021/12/03 06:44:47;;;;;;;15.60;8.27;;;5.10;82.50;;;;;;5055913;28;20033;-47
2021/12/03 06:47:12;;;;;;;20.52;9.05;;;5.10;82.50;;;;;;5055614;28;20028;-47
2021/12/03 06:49:38;;;;;;;15.02;7.65;;;5.10;82.70;;;;;;5047862;28;20306;-36
2021/12/03 06:52:11;;;;;;;15.02;7.50;;;5.20;83.00;;;;;;5035354;28;20329;-47
2021/12/03 06:54:37;;;;;;;25.40;13.45;;;5.20;83.30;;;;;;5035583;28;20034;-33
2021/12/03 06:57:05;;;;;;;18.30;9.60;;;5.30;83.50;;;;;;5035496;28;20489;-45
2021/12/03 06:59:31;;;;;;;20.00;9.32;;;5.30;83.80;;;;;;5035611;28;20040;-45
2021/12/03 07:01:58;;;;;;;16.65;8.90;;;5.40;83.80;;;;;;5035615;28;20303;-45
2021/12/03 07:04:24;;;;;;;21.73;10.82;;;5.40;83.80;;;;;;5035650;28;20029;-32
2021/12/03 07:06:50;;;;;;;15.10;8.20;;;5.40;83.80;;;;;;5035235;28;20021;-34
2021/12/03 07:09:16;;;;;;;16.50;8.50;;;5.50;84.10;;;;;;5035251;28;20095;-45
2021/12/03 07:11:42;;;;;;;14.85;8.77;;;5.50;84.40;;;;;;5035575;28;20364;-45
2021/12/03 07:14:08;;;;;;;13.35;8.13;;;5.50;84.50;;;;;;5038597;28;20329;-45
2021/12/03 07:16:34;;;;;;;14.93;9.13;;;5.50;85.00;;;;;;5039820;28;20029;-47
2021/12/03 07:19:00;;;;;;;15.50;8.20;;;5.60;85.30;;;;;;5036546;28;20029;-48
2021/12/03 07:21:26;;;;;;;14.23;8.30;;;5.50;85.60;;;;;;5037434;28;20303;-47
2021/12/03 07:23:52;;;;;;;12.60;8.35;;;5.60;86.00;;;;;;5038945;28;20048;-48
2021/12/03 07:26:19;;;;;;;14.20;8.57;;;5.60;86.30;;;;;;5039011;28;20376;-36
2021/12/03 07:28:44;;;;;;;12.98;7.95;;;5.60;86.40;;;;;;5038627;28;20068;-36
2021/12/03 07:31:11;;;;;;;13.95;8.38;;;5.70;86.60;;;;;;5038666;28;20453;-48
2021/12/03 07:33:38;;;;;;;13.95;8.85;;;5.70;86.70;;;;;;5040276;28;20041;-40
2021/12/03 07:36:05;;;;;;;14.23;8.45;;;5.80;86.70;;;;;;5047655;28;20083;-46
2021/12/03 07:38:31;;;;;;;15.70;9.48;;;5.90;86.70;;;;;;5038451;28;20071;-46
2021/12/03 07:40:57;;;;;;;14.27;9.02;;;6.00;86.80;;;;;;5038656;28;20313;-33
2021/12/03 07:43:23;;;;;;;19.90;9.60;;;6.00;87.00;;;;;;5038420;28;20029;-34
2021/12/03 07:45:49;;;;;;;17.92;11.02;;;6.10;87.10;;;;;;5038409;28;20085;-35
2021/12/03 07:48:15;;;;;;;18.60;9.95;;;6.10;87.30;;;;;;5037819;28;20091;-46
2021/12/03 07:50:42;;;;;;;19.13;10.07;;;6.20;87.90;;;;;;5038300;28;20116;-34
2021/12/03 07:53:09;;;;;;;17.42;9.90;;;6.30;88.00;;;;;;5038112;28;20053;-34
2021/12/03 07:55:36;;;;;;;15.65;8.98;;;6.40;88.20;;;;;;5039647;28;20528;-46
2021/12/03 07:58:04;;;;;;;16.05;10.65;;;6.40;88.30;;;;;;5057732;28;20039;-35
2021/12/03 08:00:30;;;;;;;18.42;10.65;;;6.50;88.40;;;;;;5057705;28;20085;-33
2021/12/03 08:02:56;;;;;;;17.05;10.35;;;6.60;88.40;;;;;;5057956;28;20080;-36
2021/12/03 08:05:21;;;;;;;15.93;11.38;;;6.60;88.40;;;;;;5058427;28;20069;-46
2021/12/03 08:07:49;;;;;;;16.83;10.60;;;6.70;88.50;;;;;;5045549;28;20071;-35
2021/12/03 08:10:15;;;;;;;17.50;10.65;;;6.80;88.70;;;;;;5037387;28;20064;-33
2021/12/03 08:12:42;;;;;;;16.40;10.85;;;6.80;88.70;;;;;;5038167;28;20099;-35
2021/12/03 08:15:08;;;;;;;19.00;12.02;;;6.90;88.90;;;;;;5037245;28;20029;-46
2021/12/03 08:17:35;;;;;;;15.07;10.68;;;7.00;89.10;;;;;;5038076;28;20033;-46
2021/12/03 08:20:02;;;;;;;20.17;12.32;;;7.00;89.10;;;;;;5037823;28;20117;-34
2021/12/03 08:22:27;;;;;;;18.60;11.77;;;7.10;89.80;;;;;;5037938;28;20033;-33
2021/12/03 08:24:54;;;;;;;15.82;11.15;;;7.20;89.30;;;;;;5046940;28;20440;-35
2021/12/03 08:27:20;;;;;;;20.77;12.23;;;7.30;89.30;;;;;;5035418;28;20034;-46
2021/12/03 08:29:46;;;;;;;20.10;13.57;;;7.40;89.50;;;;;;5036583;28;20048;-46
2021/12/03 08:32:11;;;;;;;22.48;12.50;;;7.40;89.60;;;;;;5035780;28;20040;-46
2021/12/03 08:34:38;;;;;;;22.30;12.95;;;7.50;89.90;;;;;;5037833;28;20037;-46
2021/12/03 08:37:06;;;;;;;22.23;12.60;;;7.60;89.90;;;;;;5037303;28;20117;-46
2021/12/03 08:39:32;;;;;;;22.15;13.25;;;7.60;89.90;;;;;;5037515;28;20044;-46
2021/12/03 08:41:58;;;;;;;23.60;13.45;;;7.70;89.90;;;;;;5037607;28;20025;-38
2021/12/03 08:44:24;;;;;;;28.02;14.13;;;7.80;90.00;;;;;;5037515;28;20038;-35
2021/12/03 08:46:57;;;;;;;20.95;12.90;;;7.90;90.00;;;;;;5037214;28;20026;-37
2021/12/03 08:49:35;;;;;;;20.27;12.63;;;8.00;90.00;;;;;;5037401;28;20043;-34
2021/12/03 08:57:13;;;;;;;21.73;12.02;;;8.20;89.30;;;;;;5037267;28;20036;-33
2021/12/03 08:59:39;;;;;;;20.50;11.80;;;8.30;89.10;;;;;;5039990;28;20410;-46
2021/12/03 09:02:05;;;;;;;20.77;12.52;;;8.40;89.10;;;;;;5045103;28;20075;-46
2021/12/03 09:04:30;;;;;;;18.58;12.95;;;8.40;89.10;;;;;;5037178;28;20065;-33
2021/12/03 09:06:57;;;;;;;22.55;13.45;;;8.50;89.10;;;;;;5037266;28;20029;-44
2021/12/03 09:09:26;;;;;;;17.63;10.98;;;8.50;89.00;;;;;;5036707;28;20059;-33
2021/12/03 09:11:53;;;;;;;29.45;12.57;;;8.60;88.80;;;;;;5037008;28;20025;-45
2021/12/03 09:14:34;;;;;;;23.70;11.82;;;8.70;88.70;;;;;;5036994;28;20073;-46
2021/12/03 09:19:45;;;;;;;18.25;10.02;;;8.80;88.50;;;;;;5036996;28;20044;-46
2021/12/03 09:22:16;;;;;;;21.80;11.68;;;8.90;88.40;;;;;;5036923;28;20029;-34
2021/12/03 09:24:42;;;;;;;20.92;11.98;;;9.00;88.00;;;;;;5037104;28;20087;-35
2021/12/03 09:27:08;;;;;;;23.67;12.55;;;9.10;87.90;;;;;;5036597;28;20025;-37
2021/12/03 09:29:35;;;;;;;25.40;12.82;;;9.10;87.70;;;;;;5036819;28;20040;-35
2021/12/03 09:32:02;;;;;;;26.42;16.25;;;9.20;87.50;;;;;;5036741;28;20033;-46
2021/12/03 09:34:30;;;;;;;21.90;13.70;;;9.30;87.40;;;;;;5036266;28;20040;-46
2021/12/03 09:36:56;;;;;;;21.80;11.57;;;9.40;87.20;;;;;;5036006;28;20424;-33
2021/12/03 09:39:24;;;;;;;22.98;11.88;;;9.50;86.60;;;;;;5047086;28;20412;-33
2021/12/03 09:41:54;;;;;;;17.20;10.20;;;9.60;86.00;;;;;;5056508;28;20029;-46
2021/12/03 09:44:21;;;;;;;18.48;10.60;;;9.60;85.30;;;;;;5052016;28;20035;-46
2021/12/03 09:46:48;;;;;;;20.63;10.20;;;9.70;85.00;;;;;;5036359;28;20368;-33
2021/12/03 09:52:03;;;;;;;15.55;9.65;;;9.70;84.80;;;;;;5036670;28;20088;-46
2021/12/03 09:57:06;;;;;;;19.60;9.00;;;9.80;85.10;;;;;;5036455;28;20072;-33
2021/12/03 10:12:31;;;;;;;16.33;8.98;;;10.20;83.00;;;;;;5046362;28;20033;-33
2021/12/03 10:15:15;;;;;;;25.50;13.85;;;10.30;82.80;;;;;;5044158;28;20042;-47
2021/12/03 10:20:23;;;;;;;17.52;8.23;;;10.40;82.60;;;;;;5045563;28;20036;-34
2021/12/03 10:31:53;;;;;;;12.38;6.28;;;10.80;81.30;;;;;;5046299;28;20444;-46
2021/12/03 10:44:52;;;;;;;13.18;6.55;;;11.30;78.30;;;;;;5035702;28;20030;-46
2021/12/03 11:39:16;;;;;;;11.38;5.88;;;11.60;75.30;;;;;;5035460;28;20179;-34
2021/12/03 11:45:56;;;;;;;12.55;5.95;;;11.60;75.30;;;;;;5034965;28;20112;-36
2021/12/03 12:08:58;;;;;;;9.55;4.78;;;11.50;74.30;;;;;;5039815;28;20133;-33
2021/12/03 13:17:05;;;;;;;8.18;4.72;;;10.90;67.30;;;;;;5051683;28;20044;-34
2021/12/03 13:20:12;;;;;;;12.15;5.47;;;10.90;67.40;;;;;;5041213;28;20064;-46
2021/12/03 13:22:45;;;;;;;10.63;4.63;;;10.80;66.80;;;;;;5036368;28;20308;-33
2021/12/03 13:28:36;;;;;;;10.63;5.80;;;10.60;66.80;;;;;;5036727;28;20083;-34
2021/12/03 14:07:21;;;;;;;14.00;8.63;;;9.40;68.90;;;;;;5035362;28;20196;-46
2021/12/03 14:38:37;;;;;;;27.40;17.40;;;8.40;68.90;;;;;;5035174;28;20068;-46
2021/12/03 14:55:55;;;;;;;30.50;19.15;;;7.60;70.30;;;;;;5034617;28;20381;-34
2021/12/03 15:01:36;;;;;;;47.78;27.00;;;7.50;71.00;;;;;;5037481;28;20073;-47
2021/12/03 15:07:21;;;;;;;47.80;25.98;;;7.30;71.50;;;;;;5034991;28;20045;-46
2021/12/03 15:09:48;;;;;;;53.47;26.08;;;7.30;71.70;;;;;;5033436;28;20122;-36
2021/12/03 15:20:32;;;;;;;47.22;24.02;;;7.00;72.40;;;;;;5033777;28;20274;-47
2021/12/03 15:26:23;;;;;;;55.28;26.08;;;6.80;72.80;;;;;;5011774;28;20046;-46
2021/12/03 15:31:24;;;;;;;49.38;22.83;;;6.40;73.40;;;;;;5035606;28;20040;-46
2021/12/03 15:33:58;;;;;;;51.72;22.23;;;6.30;74.10;;;;;;5034720;28;20429;-34
2021/12/03 15:36:56;;;;;;;54.70;24.42;;;6.20;74.60;;;;;;5039023;28;20109;-46
2021/12/03 15:58:20;;;;;;;14.52;8.32;;;5.40;76.10;;;;;;5038839;28;20086;-35
2021/12/03 16:03:38;;;;;;;19.77;10.85;;;5.20;76.80;;;;;;5038712;28;20063;-44
2021/12/03 16:08:32;;;;;;;21.73;9.93;;;5.10;77.40;;;;;;5038435;28;20022;-44
2021/12/03 16:11:09;;;;;;;14.90;10.00;;;5.10;77.70;;;;;;5038406;28;20445;-46
2021/12/03 16:24:27;;;;;;;16.10;9.43;;;4.80;78.60;;;;;;5038635;28;20045;-34
2021/12/03 16:54:03;;;;;;;14.07;8.75;;;4.30;80.70;;;;;;5037613;28;20032;-46
2021/12/03 16:56:29;;;;;;;31.55;15.25;;;4.30;80.70;;;;;;5037901;28;20100;-35
2021/12/03 16:58:58;;;;;;;26.20;13.95;;;4.20;80.70;;;;;;5037836;28;20093;-34
2021/12/03 17:01:30;;;;;;;18.70;10.93;;;4.20;80.90;;;;;;5037377;28;20057;-33
2021/12/03 17:56:04;;;;;;;19.75;9.80;;;4.00;83.20;;;;;;5036584;28;20113;-46
2021/12/03 17:58:42;;;;;;;15.05;9.30;;;4.00;83.20;;;;;;5036467;28;20038;-43
2021/12/03 18:55:01;;;;;;;23.20;15.38;;;3.80;84.60;;;;;;5036116;28;20116;-46
2021/12/03 18:57:32;;;;;;;21.38;13.93;;;3.80;84.50;;;;;;5035756;28;20034;-46
2021/12/03 19:00:09;;;;;;;37.40;20.73;;;3.80;84.60;;;;;;5036057;28;20044;-45
2021/12/03 19:02:38;;;;;;;20.95;13.65;;;3.80;84.70;;;;;;5035881;28;20040;-46
2021/12/03 19:05:25;;;;;;;18.98;13.23;;;3.80;84.80;;;;;;5035992;28;20038;-45
2021/12/03 19:08:14;;;;;;;20.10;13.05;;;3.80;84.80;;;;;;5035675;28;20493;-44
2021/12/03 19:10:49;;;;;;;19.83;13.15;;;3.80;84.80;;;;;;5039690;28;20354;-34
2021/12/03 19:13:24;;;;;;;17.85;12.52;;;3.80;84.70;;;;;;5038509;28;20033;-35
2021/12/03 19:15:50;;;;;;;21.73;13.98;;;3.80;84.70;;;;;;5040037;28;20033;-36
2021/12/03 19:18:20;;;;;;;26.00;16.48;;;3.80;84.70;;;;;;5039597;28;20037;-46
2021/12/03 19:20:47;;;;;;;22.20;13.75;;;3.80;84.80;;;;;;5039492;28;20152;-46
2021/12/03 19:23:13;;;;;;;20.27;13.73;;;3.80;84.90;;;;;;5039731;28;20185;-46
2021/12/03 19:25:38;;;;;;;24.52;15.00;;;3.80;85.00;;;;;;5039413;28;20116;-44
2021/12/03 19:28:04;;;;;;;23.33;15.73;;;3.80;85.00;;;;;;5039837;28;20036;-46
2021/12/03 19:30:30;;;;;;;23.20;14.75;;;3.80;84.90;;;;;;5039355;28;20029;-45
2021/12/03 19:32:56;;;;;;;26.10;17.10;;;3.80;84.90;;;;;;5039589;28;20404;-34
2021/12/03 19:35:22;;;;;;;24.00;15.45;;;3.80;84.70;;;;;;5039672;28;20342;-34
2021/12/03 19:37:51;;;;;;;24.40;15.63;;;3.80;84.80;;;;;;5039606;28;20457;-34
2021/12/03 19:40:16;;;;;;;28.83;16.90;;;3.80;84.60;;;;;;5039327;28;20436;-46
2021/12/03 19:45:11;;;;;;;29.98;16.52;;;3.70;84.40;;;;;;5039458;28;20298;-35
2021/12/03 19:50:34;;;;;;;34.63;17.40;;;3.70;84.50;;;;;;5039520;28;20091;-37
2021/12/03 19:53:12;;;;;;;32.83;17.52;;;3.70;84.50;;;;;;5038836;28;20044;-46
2021/12/03 19:55:39;;;;;;;28.80;16.75;;;3.70;84.30;;;;;;5039068;28;20030;-37
2021/12/03 19:58:10;;;;;;;30.98;16.55;;;3.70;84.40;;;;;;5039015;28;20029;-34
2021/12/03 20:00:36;;;;;;;;;;;3.70;84.50;;;;;;5039769;28;20034;-33
2021/12/03 20:03:02;;;;;;;29.00;16.13;;;3.70;84.00;;;;;;5039163;28;19959;-33
2021/12/03 20:05:28;;;;;;;30.65;16.17;;;3.70;84.10;;;;;;5039181;28;20470;-35
2021/12/03 20:07:56;;;;;;;29.08;16.30;;;3.60;84.00;;;;;;5039112;28;20071;-45
2021/12/03 20:10:22;;;;;;;31.33;18.20;;;3.60;84.00;;;;;;5038573;28;20049;-36
2021/12/03 20:12:50;;;;;;;29.45;16.95;;;3.60;84.00;;;;;;5038519;28;20445;-46
2021/12/03 20:18:30;;;;;;;26.60;16.10;;;3.60;83.80;;;;;;5037346;28;20374;-34
2021/12/03 20:20:57;;;;;;;27.50;16.40;;;3.60;83.60;;;;;;5038635;28;20045;-46
2021/12/03 20:29:00;;;;;;;26.65;15.52;;;3.50;83.60;;;;;;5038570;28;20116;-45
2021/12/03 20:31:25;;;;;;;28.20;15.85;;;3.50;83.60;;;;;;5037987;28;20033;-46
2021/12/03 20:33:59;;;;;;;25.38;14.95;;;3.50;83.80;;;;;;5038454;28;20317;-36
2021/12/03 20:39:07;;;;;;;22.85;14.18;;;3.50;83.70;;;;;;5038054;28;20336;-46
2021/12/03 21:07:55;;;;;;;19.85;12.68;;;3.40;83.70;;;;;;5038222;28;20033;-33
2021/12/03 21:10:32;;;;;;;19.98;12.73;;;3.30;83.40;;;;;;5037717;28;20055;-46
2021/12/03 21:13:08;;;;;;;20.33;11.90;;;3.20;83.50;;;;;;5037726;28;20334;-34